Lisbon, Ohio
Current Conditions -  °F | °C
As of 4:47 PM on Friday 24 Oct 2014 (Local Time) from KBVI Reporting Station
Clear Clear  
Wind Chill: 61°   Ceiling: Unl
Heat Index: 61°   Visibility: 10mi
Dew Point: 36°   Wind: 5mph
Humidity: 39%   Direction: 250°WSW
Pressure: 30"   Gusts: NA
Location:  40.77°N, 80.77°W
Report Text: KBVI 242047Z 25004KT 10SM CLR 16/02 A3000
Loading
Personal Weather Stations






























Interactive Weather Map
Tropical Storm Tracking
New forecast layout! Learn more

10-Day Weather Forecast

Advertisements
Track Severe Weather on mobile